sensor_id;sensor_type;location;lat;lon;timestamp;pressure;altitude;pressure_sealevel;temperature;humidity
62544;BME280;48597;49.030;1.822;2023-02-13T00:01:49;102633.06;;;19.24;36.20
62544;BME280;48597;49.030;1.822;2023-02-13T00:04:14;102618.34;;;19.22;36.29
62544;BME280;48597;49.030;1.822;2023-02-13T00:06:39;102616.69;;;19.21;36.20
62544;BME280;48597;49.030;1.822;2023-02-13T00:09:05;102622.41;;;19.21;36.32
62544;BME280;48597;49.030;1.822;2023-02-13T00:11:30;102619.19;;;19.19;36.05
62544;BME280;48597;49.030;1.822;2023-02-13T00:13:55;102620.00;;;19.20;36.28
62544;BME280;48597;49.030;1.822;2023-02-13T00:16:22;102625.72;;;19.20;36.33
62544;BME280;48597;49.030;1.822;2023-02-13T00:18:47;102623.25;;;19.22;36.11
62544;BME280;48597;49.030;1.822;2023-02-13T00:21:12;102616.69;;;19.21;36.21
62544;BME280;48597;49.030;1.822;2023-02-13T00:23:38;102618.34;;;19.22;36.08
62544;BME280;48597;49.030;1.822;2023-02-13T00:26:04;102622.84;;;19.23;36.09
62544;BME280;48597;49.030;1.822;2023-02-13T00:28:30;102614.66;;;19.22;35.93
62544;BME280;48597;49.030;1.822;2023-02-13T00:31:01;102619.16;;;19.23;35.96
62544;BME280;48597;49.030;1.822;2023-02-13T00:33:26;102617.13;;;19.23;35.99
62544;BME280;48597;49.030;1.822;2023-02-13T00:35:51;102614.25;;;19.23;35.91
62544;BME280;48597;49.030;1.822;2023-02-13T00:38:25;102611.00;;;19.25;35.90
62544;BME280;48597;49.030;1.822;2023-02-13T00:40:50;102613.47;;;19.26;36.00
62544;BME280;48597;49.030;1.822;2023-02-13T00:43:16;102615.09;;;19.27;36.05
62544;BME280;48597;49.030;1.822;2023-02-13T00:45:41;102611.03;;;19.28;35.92
62544;BME280;48597;49.030;1.822;2023-02-13T00:48:06;102612.25;;;19.27;35.81
62544;BME280;48597;49.030;1.822;2023-02-13T00:50:31;102602.03;;;19.30;35.94
62544;BME280;48597;49.030;1.822;2023-02-13T00:52:57;102613.91;;;19.32;35.98
62544;BME280;48597;49.030;1.822;2023-02-13T00:55:22;102612.69;;;19.33;36.01
62544;BME280;48597;49.030;1.822;2023-02-13T00:57:47;102604.50;;;19.32;35.94
62544;BME280;48597;49.030;1.822;2023-02-13T01:00:13;102611.03;;;19.32;35.94
62544;BME280;48597;49.030;1.822;2023-02-13T01:02:38;102611.47;;;19.34;36.00
62544;BME280;48597;49.030;1.822;2023-02-13T01:05:03;102603.66;;;19.35;35.85
62544;BME280;48597;49.030;1.822;2023-02-13T01:07:29;102600.41;;;19.33;35.81
62544;BME280;48597;49.030;1.822;2023-02-13T01:09:54;102607.34;;;19.32;35.82
62544;BME280;48597;49.030;1.822;2023-02-13T01:12:19;102598.34;;;19.30;35.79
62544;BME280;48597;49.030;1.822;2023-02-13T01:14:45;102603.69;;;19.31;35.86
62544;BME280;48597;49.030;1.822;2023-02-13T01:17:10;102597.53;;;19.29;35.87
62544;BME280;48597;49.030;1.822;2023-02-13T01:19:35;102601.22;;;19.30;35.86
62544;BME280;48597;49.030;1.822;2023-02-13T01:22:00;102600.81;;;19.27;35.78
62544;BME280;48597;49.030;1.822;2023-02-13T01:24:26;102600.41;;;19.29;35.79
62544;BME280;48597;49.030;1.822;2023-02-13T01:26:53;102595.50;;;19.30;35.74
62544;BME280;48597;49.030;1.822;2023-02-13T01:29:19;102591.41;;;19.31;35.79
62544;BME280;48597;49.030;1.822;2023-02-13T01:31:44;102596.31;;;19.30;35.68
62544;BME280;48597;49.030;1.822;2023-02-13T01:34:09;102593.47;;;19.30;35.64
62544;BME280;48597;49.030;1.822;2023-02-13T01:36:35;102604.50;;;19.32;35.85
62544;BME280;48597;49.030;1.822;2023-02-13T01:39:00;102595.53;;;19.33;35.62
62544;BME280;48597;49.030;1.822;2023-02-13T01:41:25;102591.81;;;19.36;35.81
62544;BME280;48597;49.030;1.822;2023-02-13T01:43:53;102585.72;;;19.34;35.79
62544;BME280;48597;49.030;1.822;2023-02-13T01:46:26;102589.81;;;19.33;35.79
62544;BME280;48597;49.030;1.822;2023-02-13T01:48:53;102587.75;;;19.37;35.65
62544;BME280;48597;49.030;1.822;2023-02-13T01:51:24;102584.88;;;19.37;35.73
62544;BME280;48597;49.030;1.822;2023-02-13T01:54:04;102584.47;;;19.39;35.57
62544;BME280;48597;49.030;1.822;2023-02-13T01:56:32;102588.16;;;19.39;35.69
62544;BME280;48597;49.030;1.822;2023-02-13T01:59:00;102584.50;;;19.42;35.72
62544;BME280;48597;49.030;1.822;2023-02-13T02:01:26;102586.94;;;19.40;35.65
62544;BME280;48597;49.030;1.822;2023-02-13T02:04:06;102589.00;;;19.43;35.79
62544;BME280;48597;49.030;1.822;2023-02-13T02:06:40;102595.13;;;19.45;35.48
62544;BME280;48597;49.030;1.822;2023-02-13T02:09:11;102592.69;;;19.47;35.54
62544;BME280;48597;49.030;1.822;2023-02-13T02:11:40;102596.34;;;19.48;35.50
62544;BME280;48597;49.030;1.822;2023-02-13T02:14:06;102593.09;;;19.46;35.54
62544;BME280;48597;49.030;1.822;2023-02-13T02:16:33;102597.59;;;19.47;35.61
62544;BME280;48597;49.030;1.822;2023-02-13T02:19:00;102601.25;;;19.44;35.54
62544;BME280;48597;49.030;1.822;2023-02-13T02:21:46;102591.44;;;19.41;35.56
62544;BME280;48597;49.030;1.822;2023-02-13T02:40:00;102593.88;;;19.39;35.40
62544;BME280;48597;49.030;1.822;2023-02-13T02:45:03;102590.22;;;19.42;35.42
62544;BME280;48597;49.030;1.822;2023-02-13T02:47:31;102584.50;;;19.42;35.39
62544;BME280;48597;49.030;1.822;2023-02-13T02:50:35;102579.19;;;19.44;35.36
62544;BME280;48597;49.030;1.822;2023-02-13T02:55:31;102582.47;;;19.46;35.34
62544;BME280;48597;49.030;1.822;2023-02-13T02:58:08;102574.28;;;19.48;35.20
62544;BME280;48597;49.030;1.822;2023-02-13T03:00:53;102568.19;;;19.50;35.42
62544;BME280;48597;49.030;1.822;2023-02-13T03:03:40;102568.56;;;19.48;35.20
62544;BME280;48597;49.030;1.822;2023-02-13T03:06:25;102568.56;;;19.48;35.28
62544;BME280;48597;49.030;1.822;2023-02-13T03:08:53;102566.13;;;19.50;35.19
62544;BME280;48597;49.030;1.822;2023-02-13T03:11:38;102558.78;;;19.49;35.19
62544;BME280;48597;49.030;1.822;2023-02-13T03:14:24;102567.34;;;19.49;35.24
62544;BME280;48597;49.030;1.822;2023-02-13T03:16:50;102568.56;;;19.48;35.29
62544;BME280;48597;49.030;1.822;2023-02-13T03:19:43;102570.63;;;19.51;35.16
62544;BME280;48597;49.030;1.822;2023-02-13T03:22:35;102578.00;;;19.52;35.24
62544;BME280;48597;49.030;1.822;2023-02-13T03:30:35;102578.41;;;19.51;35.08
62544;BME280;48597;49.030;1.822;2023-02-13T03:33:14;102575.53;;;19.51;35.15
62544;BME280;48597;49.030;1.822;2023-02-13T03:38:36;102568.56;;;19.48;35.12
62544;BME280;48597;49.030;1.822;2023-02-13T03:46:46;102565.69;;;19.48;35.09
62544;BME280;48597;49.030;1.822;2023-02-13T03:49:20;102573.06;;;19.49;34.99
62544;BME280;48597;49.030;1.822;2023-02-13T03:54:50;102569.41;;;19.49;34.98
62544;BME280;48597;49.030;1.822;2023-02-13T03:57:35;102573.06;;;19.49;35.09
62544;BME280;48597;49.030;1.822;2023-02-13T04:00:19;102570.22;;;19.49;35.01
62544;BME280;48597;49.030;1.822;2023-02-13T04:03:08;102568.19;;;19.50;35.00
62544;BME280;48597;49.030;1.822;2023-02-13T04:05:32;102568.19;;;19.50;34.92
62544;BME280;48597;49.030;1.822;2023-02-13T04:08:00;102580.84;;;19.52;34.88
62544;BME280;48597;49.030;1.822;2023-02-13T04:10:26;102584.13;;;19.54;35.04
62544;BME280;48597;49.030;1.822;2023-02-13T04:13:13;102583.72;;;19.52;34.94
62544;BME280;48597;49.030;1.822;2023-02-13T04:16:00;102573.50;;;19.55;34.99
62544;BME280;48597;49.030;1.822;2023-02-13T04:18:28;102571.47;;;19.55;35.00
62544;BME280;48597;49.030;1.822;2023-02-13T04:20:54;102574.31;;;19.55;34.92
62544;BME280;48597;49.030;1.822;2023-02-13T04:23:19;102575.16;;;19.56;34.82
62544;BME280;48597;49.030;1.822;2023-02-13T04:25:49;102575.97;;;19.56;34.83
62544;BME280;48597;49.030;1.822;2023-02-13T04:28:15;102575.16;;;19.59;34.85
62544;BME280;48597;49.030;1.822;2023-02-13T04:30:40;102571.47;;;19.59;34.95
62544;BME280;48597;49.030;1.822;2023-02-13T04:33:06;102567.38;;;19.60;34.77
62544;BME280;48597;49.030;1.822;2023-02-13T04:35:31;102575.16;;;19.56;34.76
62544;BME280;48597;49.030;1.822;2023-02-13T04:37:57;102571.88;;;19.54;34.80
62544;BME280;48597;49.030;1.822;2023-02-13T04:40:22;102566.97;;;19.54;34.75
62544;BME280;48597;49.030;1.822;2023-02-13T04:42:47;102566.97;;;19.54;34.87
62544;BME280;48597;49.030;1.822;2023-02-13T04:45:13;102574.72;;;19.54;34.75
62544;BME280;48597;49.030;1.822;2023-02-13T04:47:38;102573.50;;;19.51;34.77
62544;BME280;48597;49.030;1.822;2023-02-13T04:50:03;102571.03;;;19.50;34.74
62544;BME280;48597;49.030;1.822;2023-02-13T04:52:29;102567.78;;;19.51;34.85
62544;BME280;48597;49.030;1.822;2023-02-13T04:54:54;102572.69;;;19.51;34.77
62544;BME280;48597;49.030;1.822;2023-02-13T04:57:19;102569.81;;;19.51;34.64
62544;BME280;48597;49.030;1.822;2023-02-13T04:59:44;102570.22;;;19.53;34.73
62544;BME280;48597;49.030;1.822;2023-02-13T05:02:11;102568.59;;;19.52;34.65
62544;BME280;48597;49.030;1.822;2023-02-13T05:04:36;102567.38;;;19.53;34.76
62544;BME280;48597;49.030;1.822;2023-02-13T05:07:02;102579.63;;;19.53;34.81
62544;BME280;48597;49.030;1.822;2023-02-13T05:09:27;102569.00;;;19.54;34.57
62544;BME280;48597;49.030;1.822;2023-02-13T05:11:52;102573.50;;;19.55;34.63
62544;BME280;48597;49.030;1.822;2023-02-13T05:14:18;102578.81;;;19.56;34.69
62544;BME280;48597;49.030;1.822;2023-02-13T05:16:43;102568.63;;;19.59;34.69
62544;BME280;48597;49.030;1.822;2023-02-13T05:19:09;102567.78;;;19.58;34.55
62544;BME280;48597;49.030;1.822;2023-02-13T05:21:34;102569.44;;;19.59;34.68
62544;BME280;48597;49.030;1.822;2023-02-13T05:24:18;102580.88;;;19.59;34.59
62544;BME280;48597;49.030;1.822;2023-02-13T05:26:43;102579.22;;;19.62;34.62
62544;BME280;48597;49.030;1.822;2023-02-13T05:29:09;102580.03;;;19.62;34.63
62544;BME280;48597;49.030;1.822;2023-02-13T05:31:54;102575.94;;;19.63;34.49
62544;BME280;48597;49.030;1.822;2023-02-13T05:34:20;102577.19;;;19.59;34.54
62544;BME280;48597;49.030;1.822;2023-02-13T05:36:45;102582.09;;;19.58;34.58
62544;BME280;48597;49.030;1.822;2023-02-13T05:39:11;102583.31;;;19.57;34.55
62544;BME280;48597;49.030;1.822;2023-02-13T05:41:37;102580.44;;;19.54;34.49
62544;BME280;48597;49.030;1.822;2023-02-13T05:44:02;102574.72;;;19.54;34.50
62544;BME280;48597;49.030;1.822;2023-02-13T05:46:27;102578.41;;;19.54;34.55
62544;BME280;48597;49.030;1.822;2023-02-13T05:48:53;102587.00;;;19.54;34.36
62544;BME280;48597;49.030;1.822;2023-02-13T05:51:18;102581.66;;;19.53;34.48
62544;BME280;48597;49.030;1.822;2023-02-13T05:53:43;102590.25;;;19.53;34.58
62544;BME280;48597;49.030;1.822;2023-02-13T05:56:08;102574.31;;;19.52;34.63
62544;BME280;48597;49.030;1.822;2023-02-13T05:58:34;102585.75;;;19.52;34.43
62544;BME280;48597;49.030;1.822;2023-02-13T06:01:00;102578.41;;;19.51;34.74
62544;BME280;48597;49.030;1.822;2023-02-13T06:03:26;102585.34;;;19.50;35.02
62544;BME280;48597;49.030;1.822;2023-02-13T06:05:52;102590.63;;;19.48;34.77
62544;BME280;48597;49.030;1.822;2023-02-13T06:08:19;102587.75;;;19.48;35.04
62544;BME280;48597;49.030;1.822;2023-02-13T06:10:48;102579.16;;;19.48;35.17
62544;BME280;48597;49.030;1.822;2023-02-13T06:13:14;102586.16;;;19.47;35.49
62544;BME280;48597;49.030;1.822;2023-02-13T06:15:39;102575.94;;;19.46;35.04
62544;BME280;48597;49.030;1.822;2023-02-13T06:18:05;102578.78;;;19.46;35.27
62544;BME280;48597;49.030;1.822;2023-02-13T06:20:30;102579.19;;;19.44;35.02
62544;BME280;48597;49.030;1.822;2023-02-13T06:22:55;102581.22;;;19.44;35.83
62544;BME280;48597;49.030;1.822;2023-02-13T06:25:21;102585.72;;;19.41;35.30
62544;BME280;48597;49.030;1.822;2023-02-13T06:27:46;102582.03;;;19.41;35.41
62544;BME280;48597;49.030;1.822;2023-02-13T06:30:12;102582.44;;;19.39;35.79
62544;BME280;48597;49.030;1.822;2023-02-13T06:32:37;102583.66;;;19.38;35.75
62544;BME280;48597;49.030;1.822;2023-02-13T06:35:03;102579.16;;;19.37;35.79
62544;BME280;48597;49.030;1.822;2023-02-13T06:37:28;102581.22;;;19.37;35.77
62544;BME280;48597;49.030;1.822;2023-02-13T06:39:53;102573.03;;;19.35;35.65
62544;BME280;48597;49.030;1.822;2023-02-13T06:42:19;102584.47;;;19.35;35.82
62544;BME280;48597;49.030;1.822;2023-02-13T06:44:44;102590.63;;;19.34;35.79
62544;BME280;48597;49.030;1.822;2023-02-13T06:47:09;102593.06;;;19.32;35.84
62544;BME280;48597;49.030;1.822;2023-02-13T06:49:35;102584.88;;;19.30;35.79
62544;BME280;48597;49.030;1.822;2023-02-13T06:52:00;102591.81;;;19.29;35.92
62544;BME280;48597;49.030;1.822;2023-02-13T06:54:25;102593.03;;;19.28;35.91
62544;BME280;48597;49.030;1.822;2023-02-13T06:56:50;102597.13;;;19.27;35.91
62544;BME280;48597;49.030;1.822;2023-02-13T06:59:16;102599.97;;;19.27;35.91
62544;BME280;48597;49.030;1.822;2023-02-13T07:01:41;102604.47;;;19.24;36.07
62544;BME280;48597;49.030;1.822;2023-02-13T07:04:06;102597.94;;;19.24;35.74
62544;BME280;48597;49.030;1.822;2023-02-13T07:06:31;102600.38;;;19.22;35.65
62544;BME280;48597;49.030;1.822;2023-02-13T07:08:57;102599.56;;;19.21;35.75
62544;BME280;48597;49.030;1.822;2023-02-13T07:11:23;102601.63;;;19.21;35.72
62544;BME280;48597;49.030;1.822;2023-02-13T07:13:50;102598.34;;;19.19;35.90
62544;BME280;48597;49.030;1.822;2023-02-13T07:16:15;102599.56;;;19.18;35.70
62544;BME280;48597;49.030;1.822;2023-02-13T07:18:40;102608.13;;;19.18;35.47
62544;BME280;48597;49.030;1.822;2023-02-13T07:21:06;102604.88;;;19.16;35.83
62544;BME280;48597;49.030;1.822;2023-02-13T07:23:31;102606.09;;;19.15;35.88
62544;BME280;48597;49.030;1.822;2023-02-13T07:26:00;102602.41;;;19.14;36.01
62544;BME280;48597;49.030;1.822;2023-02-13T07:28:26;102604.44;;;19.14;35.36
62544;BME280;48597;49.030;1.822;2023-02-13T07:30:51;102600.75;;;19.13;35.44
62544;BME280;48597;49.030;1.822;2023-02-13T07:33:17;102600.75;;;19.13;35.62
62544;BME280;48597;49.030;1.822;2023-02-13T07:35:45;102602.81;;;19.13;35.39
62544;BME280;48597;49.030;1.822;2023-02-13T07:38:11;102604.03;;;19.12;35.48
62544;BME280;48597;49.030;1.822;2023-02-13T07:40:36;102611.38;;;19.13;35.50
62544;BME280;48597;49.030;1.822;2023-02-13T07:43:01;102606.88;;;19.12;35.35
62544;BME280;48597;49.030;1.822;2023-02-13T07:45:26;102615.47;;;19.12;35.57
62544;BME280;48597;49.030;1.822;2023-02-13T07:47:53;102618.72;;;19.10;35.44
62544;BME280;48597;49.030;1.822;2023-02-13T07:50:19;102622.41;;;19.11;35.40
62544;BME280;48597;49.030;1.822;2023-02-13T07:52:51;102617.91;;;19.10;35.30
62544;BME280;48597;49.030;1.822;2023-02-13T07:55:16;102619.13;;;19.09;35.43
62544;BME280;48597;49.030;1.822;2023-02-13T07:57:41;102625.66;;;19.09;35.36
62544;BME280;48597;49.030;1.822;2023-02-13T08:00:07;102621.97;;;19.09;35.42
62544;BME280;48597;49.030;1.822;2023-02-13T08:02:32;102626.91;;;19.08;35.68
62544;BME280;48597;49.030;1.822;2023-02-13T08:04:57;102622.41;;;19.07;35.58
62544;BME280;48597;49.030;1.822;2023-02-13T08:07:23;102630.97;;;19.07;35.59
62544;BME280;48597;49.030;1.822;2023-02-13T08:09:48;102627.31;;;19.07;35.54
62544;BME280;48597;49.030;1.822;2023-02-13T08:12:32;102634.25;;;19.06;35.80
62544;BME280;48597;49.030;1.822;2023-02-13T08:14:59;102630.97;;;19.04;35.63
62544;BME280;48597;49.030;1.822;2023-02-13T08:17:24;102637.50;;;19.04;35.64
62544;BME280;48597;49.030;1.822;2023-02-13T08:19:49;102635.84;;;19.03;35.62
62544;BME280;48597;49.030;1.822;2023-02-13T08:22:15;102634.63;;;19.04;35.62
62544;BME280;48597;49.030;1.822;2023-02-13T08:24:40;102635.84;;;19.03;35.37
62544;BME280;48597;49.030;1.822;2023-02-13T08:27:05;102645.66;;;19.02;35.38
62544;BME280;48597;49.030;1.822;2023-02-13T08:29:31;102647.69;;;19.02;35.69
62544;BME280;48597;49.030;1.822;2023-02-13T08:31:58;102644.81;;;19.02;35.72
62544;BME280;48597;49.030;1.822;2023-02-13T08:34:23;102644.00;;;19.01;35.48
62544;BME280;48597;49.030;1.822;2023-02-13T08:36:49;102644.00;;;19.01;35.62
62544;BME280;48597;49.030;1.822;2023-02-13T08:39:14;102652.97;;;19.00;35.50
62544;BME280;48597;49.030;1.822;2023-02-13T08:41:39;102651.75;;;19.01;35.63
62544;BME280;48597;49.030;1.822;2023-02-13T08:44:05;102650.13;;;19.00;35.42
62544;BME280;48597;49.030;1.822;2023-02-13T08:46:30;102647.25;;;19.00;35.67
62544;BME280;48597;49.030;1.822;2023-02-13T08:48:55;102646.88;;;19.01;35.54
62544;BME280;48597;49.030;1.822;2023-02-13T08:51:20;102647.69;;;19.02;35.88
62544;BME280;48597;49.030;1.822;2023-02-13T08:53:46;102644.41;;;19.00;35.44
62544;BME280;48597;49.030;1.822;2023-02-13T08:56:11;102646.47;;;19.03;35.60
62544;BME280;48597;49.030;1.822;2023-02-13T08:58:36;102643.59;;;19.03;35.34
62544;BME280;48597;49.030;1.822;2023-02-13T09:01:08;102647.28;;;19.03;35.69
62544;BME280;48597;49.030;1.822;2023-02-13T09:03:33;102647.28;;;19.03;35.85
62544;BME280;48597;49.030;1.822;2023-02-13T09:05:59;102653.41;;;19.02;35.70
62544;BME280;48597;49.030;1.822;2023-02-13T09:08:25;102654.22;;;19.02;35.78
62544;BME280;48597;49.030;1.822;2023-02-13T09:11:00;102652.59;;;19.01;35.84
62544;BME280;48597;49.030;1.822;2023-02-13T09:13:29;102667.28;;;19.03;35.97
62544;BME280;48597;49.030;1.822;2023-02-13T09:16:01;102657.47;;;19.01;35.91
62544;BME280;48597;49.030;1.822;2023-02-13T09:18:27;102657.06;;;19.02;35.71
62544;BME280;48597;49.030;1.822;2023-02-13T09:20:59;102655.44;;;19.01;35.56
62544;BME280;48597;49.030;1.822;2023-02-13T09:23:25;102654.22;;;19.02;35.75
62544;BME280;48597;49.030;1.822;2023-02-13T09:25:50;102661.97;;;19.02;35.72
62544;BME280;48597;49.030;1.822;2023-02-13T09:28:15;102655.03;;;19.03;35.64
62544;BME280;48597;49.030;1.822;2023-02-13T09:30:40;102657.06;;;19.02;35.78
62544;BME280;48597;49.030;1.822;2023-02-13T09:33:08;102659.94;;;19.02;35.74
62544;BME280;48597;49.030;1.822;2023-02-13T09:35:34;102659.53;;;19.04;35.65
62544;BME280;48597;49.030;1.822;2023-02-13T09:37:59;102660.34;;;19.04;35.71
62544;BME280;48597;49.030;1.822;2023-02-13T09:40:27;102658.72;;;19.03;35.95
62544;BME280;48597;49.030;1.822;2023-02-13T09:43:04;102658.31;;;19.05;35.98
62544;BME280;48597;49.030;1.822;2023-02-13T09:45:30;102650.97;;;19.04;35.96
62544;BME280;48597;49.030;1.822;2023-02-13T09:47:56;102652.59;;;19.05;35.79
62544;BME280;48597;49.030;1.822;2023-02-13T09:50:23;102659.97;;;19.06;35.94
62544;BME280;48597;49.030;1.822;2023-02-13T09:52:50;102654.25;;;19.06;35.54
62544;BME280;48597;49.030;1.822;2023-02-13T09:55:27;102656.69;;;19.07;35.85
62544;BME280;48597;49.030;1.822;2023-02-13T10:00:25;102653.41;;;19.09;35.82
62544;BME280;48597;49.030;1.822;2023-02-13T10:08:26;102646.91;;;19.12;36.15
62544;BME280;48597;49.030;1.822;2023-02-13T10:11:08;102646.91;;;19.12;35.93
62544;BME280;48597;49.030;1.822;2023-02-13T10:18:41;102648.53;;;19.13;36.09
62544;BME280;48597;49.030;1.822;2023-02-13T10:21:08;102641.59;;;19.14;36.08
62544;BME280;48597;49.030;1.822;2023-02-13T10:23:45;102642.81;;;19.13;36.22
62544;BME280;48597;49.030;1.822;2023-02-13T10:26:22;102630.16;;;19.14;36.14
62544;BME280;48597;49.030;1.822;2023-02-13T10:28:58;102640.38;;;19.15;35.94
62544;BME280;48597;49.030;1.822;2023-02-13T10:31:43;102632.63;;;19.15;36.23
62544;BME280;48597;49.030;1.822;2023-02-13T10:34:11;102636.31;;;19.16;36.08
62544;BME280;48597;49.030;1.822;2023-02-13T10:36:39;102636.31;;;19.16;36.39
62544;BME280;48597;49.030;1.822;2023-02-13T10:41:43;102633.03;;;19.17;36.22
62544;BME280;48597;49.030;1.822;2023-02-13T10:47:02;102635.50;;;19.19;36.25
62544;BME280;48597;49.030;1.822;2023-02-13T10:54:27;102637.16;;;19.20;36.05
62544;BME280;48597;49.030;1.822;2023-02-13T11:04:33;102633.06;;;19.24;36.32
62544;BME280;48597;49.030;1.822;2023-02-13T11:07:02;102628.16;;;19.25;36.15
62544;BME280;48597;49.030;1.822;2023-02-13T11:09:28;102624.06;;;19.26;36.35
62544;BME280;48597;49.030;1.822;2023-02-13T11:11:56;102622.84;;;19.27;36.22
62544;BME280;48597;49.030;1.822;2023-02-13T11:14:22;102622.47;;;19.28;36.31
62544;BME280;48597;49.030;1.822;2023-02-13T11:17:11;102620.41;;;19.29;36.56
62544;BME280;48597;49.030;1.822;2023-02-13T11:19:56;102611.44;;;19.31;36.37
62544;BME280;48597;49.030;1.822;2023-02-13T11:24:51;102607.78;;;19.34;36.27
62544;BME280;48597;49.030;1.822;2023-02-13T11:27:21;102602.88;;;19.34;36.50
62544;BME280;48597;49.030;1.822;2023-02-13T11:29:56;102598.75;;;19.35;36.13
62544;BME280;48597;49.030;1.822;2023-02-13T11:34:48;102593.06;;;19.39;36.39
62544;BME280;48597;49.030;1.822;2023-02-13T11:37:19;102593.88;;;19.39;36.81
62544;BME280;48597;49.030;1.822;2023-02-13T11:39:46;102592.66;;;19.40;36.81
62544;BME280;48597;49.030;1.822;2023-02-13T11:44:51;102580.00;;;19.41;36.69
62544;BME280;48597;49.030;1.822;2023-02-13T11:47:28;102581.22;;;19.44;36.66
62544;BME280;48597;49.030;1.822;2023-02-13T11:49:54;102581.22;;;19.44;36.33
62544;BME280;48597;49.030;1.822;2023-02-13T11:52:24;102572.66;;;19.44;36.20
62544;BME280;48597;49.030;1.822;2023-02-13T11:54:55;102568.56;;;19.45;36.40
62544;BME280;48597;49.030;1.822;2023-02-13T11:57:30;102565.72;;;19.45;36.43
62544;BME280;48597;49.030;1.822;2023-02-13T11:59:57;102559.59;;;19.46;36.37
62544;BME280;48597;49.030;1.822;2023-02-13T12:02:29;102565.31;;;19.46;36.42
62544;BME280;48597;49.030;1.822;2023-02-13T12:07:38;102556.28;;;19.48;36.59
62544;BME280;48597;49.030;1.822;2023-02-13T12:12:43;102550.63;;;19.51;36.32
62544;BME280;48597;49.030;1.822;2023-02-13T12:15:14;102548.97;;;19.50;36.42
62544;BME280;48597;49.030;1.822;2023-02-13T12:17:41;102544.91;;;19.51;36.40
62544;BME280;48597;49.030;1.822;2023-02-13T12:20:12;102546.53;;;19.52;36.31
62544;BME280;48597;49.030;1.822;2023-02-13T12:25:25;102548.59;;;19.55;36.59
62544;BME280;48597;49.030;1.822;2023-02-13T12:30:26;102543.69;;;19.56;36.64
62544;BME280;48597;49.030;1.822;2023-02-13T12:33:01;102538.78;;;19.56;36.38
62544;BME280;48597;49.030;1.822;2023-02-13T12:38:09;102539.19;;;19.58;36.38
62544;BME280;48597;49.030;1.822;2023-02-13T12:40:49;102529.38;;;19.59;36.70
62544;BME280;48597;49.030;1.822;2023-02-13T12:43:31;102517.13;;;19.59;36.58
62544;BME280;48597;49.030;1.822;2023-02-13T12:54:05;102522.81;;;19.62;36.64
62544;BME280;48597;49.030;1.822;2023-02-13T12:59:31;102513.03;;;19.63;36.71
62544;BME280;48597;49.030;1.822;2023-02-13T13:02:09;102516.28;;;19.66;36.81
62544;BME280;48597;49.030;1.822;2023-02-13T13:22:38;102485.16;;;20.03;36.05
62544;BME280;48597;49.030;1.822;2023-02-13T13:25:11;102492.88;;;20.13;35.82
62544;BME280;48597;49.030;1.822;2023-02-13T13:27:43;102488.31;;;20.48;35.57
62544;BME280;48597;49.030;1.822;2023-02-13T13:30:20;102484.75;;;20.95;34.33
62544;BME280;48597;49.030;1.822;2023-02-13T13:32:50;102483.34;;;21.18;33.88
62544;BME280;48597;49.030;1.822;2023-02-13T13:35:18;102480.06;;;21.23;33.68
62544;BME280;48597;49.030;1.822;2023-02-13T13:37:53;102476.78;;;21.24;33.97
62544;BME280;48597;49.030;1.822;2023-02-13T13:50:50;102467.97;;;20.07;35.90
62544;BME280;48597;49.030;1.822;2023-02-13T13:53:19;102464.72;;;20.05;36.05
62544;BME280;48597;49.030;1.822;2023-02-13T13:58:24;102463.88;;;20.04;36.10
62544;BME280;48597;49.030;1.822;2023-02-13T14:03:39;102463.88;;;20.01;36.12
62544;BME280;48597;49.030;1.822;2023-02-13T14:06:09;102464.34;;;19.99;36.17
62544;BME280;48597;49.030;1.822;2023-02-13T14:13:33;102458.97;;;20.01;36.23
62544;BME280;48597;49.030;1.822;2023-02-13T14:15:59;102466.75;;;20.01;36.23
62544;BME280;48597;49.030;1.822;2023-02-13T14:18:24;102467.56;;;20.01;36.26
62544;BME280;48597;49.030;1.822;2023-02-13T14:20:54;102459.81;;;20.02;36.22
62544;BME280;48597;49.030;1.822;2023-02-13T14:25:48;102461.44;;;20.03;36.25
62544;BME280;48597;49.030;1.822;2023-02-13T14:30:45;102456.94;;;20.02;36.20
62544;BME280;48597;49.030;1.822;2023-02-13T14:33:21;102458.97;;;20.01;36.24
62544;BME280;48597;49.030;1.822;2023-02-13T14:35:57;102450.41;;;20.01;36.37
62544;BME280;48597;49.030;1.822;2023-02-13T14:38:23;102451.63;;;20.00;36.22
62544;BME280;48597;49.030;1.822;2023-02-13T14:40:49;102458.16;;;20.01;36.29
62544;BME280;48597;49.030;1.822;2023-02-13T14:43:19;102451.63;;;20.00;36.14
62544;BME280;48597;49.030;1.822;2023-02-13T14:45:46;102456.53;;;19.99;36.29
62544;BME280;48597;49.030;1.822;2023-02-13T14:48:13;102463.06;;;20.00;36.29
62544;BME280;48597;49.030;1.822;2023-02-13T14:50:46;102452.06;;;19.98;36.33
62544;BME280;48597;49.030;1.822;2023-02-13T14:53:15;102458.16;;;20.01;36.29
62544;BME280;48597;49.030;1.822;2023-02-13T14:55:41;102452.88;;;19.99;36.32
62544;BME280;48597;49.030;1.822;2023-02-13T14:58:19;102465.94;;;20.00;36.36
62544;BME280;48597;49.030;1.822;2023-02-13T15:00:51;102467.19;;;19.99;36.32
62544;BME280;48597;49.030;1.822;2023-02-13T15:03:26;102450.81;;;19.99;36.28
62544;BME280;48597;49.030;1.822;2023-02-13T15:05:53;102451.63;;;20.00;36.37
62544;BME280;48597;49.030;1.822;2023-02-13T15:08:20;102450.81;;;19.99;36.36
62544;BME280;48597;49.030;1.822;2023-02-13T15:10:51;102445.09;;;19.99;36.44
62544;BME280;48597;49.030;1.822;2023-02-13T15:13:24;102447.16;;;19.99;36.34
62544;BME280;48597;49.030;1.822;2023-02-13T15:18:28;102450.81;;;19.99;36.48
62544;BME280;48597;49.030;1.822;2023-02-13T15:20:54;102456.53;;;19.99;36.45
62544;BME280;48597;49.030;1.822;2023-02-13T15:23:23;102450.81;;;19.99;36.48
62544;BME280;48597;49.030;1.822;2023-02-13T15:26:03;102448.38;;;19.98;36.54